FKKD

Douala International Airport

Douala, Cameroon
METAR FKKD 190600Z 00000KT 2000 BR SCT013 FEW016CB 24/24 Q1010 TEMPO 1300 BR
Observed Flight Rules
Jan-19 @ 06:00 UTC (an hour ago) Instrument Flight Rules
Wind Visibility Clouds Conditions
Calm 1,996 meters
  • Scattered at 1,300' AGL
  • Few at 1,600' AGL
  • Mist
Temperatures Readings
Current 24°C / 75°F
Dewpoint 24°C / 75°F
Humidity 100%
Altimeter 29.82" Hg
Pressure 1010 hPa
Elevation 9
METAR FKKD 190600Z 00000KT 2000 BR SCT013 FEW016CB 24/24 Q1010 TEMPO 1300 BR
Observed Flight Rules
Jan-19 @ 06:00 UTC
(an hour ago)
IFR
Wind Visibility
Calm 1,996 meters
Clouds
  • Scattered at 1,300' AGL
  • Few at 1,600' AGL
Conditions
  • Mist
Temperature Dewpoint
24°C / 75°F 24°C / 75°F
Humidity Altimeter Pressure
100% 29.82" Hg 1010 hPa